Time;durP1;ratioP1;P1;durP2;ratioP2;P2;SDS_P1;SDS_P2;PMS_P1;PMS_P2;Temp;Humidity;BMP_temperature;BMP_pressure;BME280_temperature;BME280_humidity;BME280_pressure;Samples;Min_cycle;Max_cycle;Signal;HPM_P1;HPM_P2
2022/08/24 00:00:17;;;;;;;4.35;2.40;;;;;;;25.06;50.55;101103.31;5022017;28;20104;-81
2022/08/24 00:02:44;;;;;;;5.38;2.55;;;;;;;25.17;50.83;101115.34;5024823;28;20085;-80
2022/08/24 00:05:11;;;;;;;4.65;2.50;;;;;;;25.22;50.41;101115.56;5025058;28;20576;-80
2022/08/24 00:07:40;;;;;;;3.70;2.15;;;;;;;25.28;50.41;101109.22;5007427;28;20512;-82
2022/08/24 00:10:10;;;;;;;2.92;2.15;;;;;;;25.16;50.76;101094.66;5008808;28;20052;-80
2022/08/24 00:12:36;;;;;;;4.55;2.00;;;;;;;25.24;50.86;101116.13;5007159;28;20480;-80
2022/08/24 00:15:07;;;;;;;9.00;2.50;;;;;;;25.16;50.92;101117.22;5007477;28;20100;-81
2022/08/24 00:17:33;;;;;;;5.13;2.08;;;;;;;25.18;50.99;101127.91;5007425;28;20057;-80
2022/08/24 00:20:01;;;;;;;2.78;2.42;;;;;;;25.07;51.13;101118.53;5007317;28;20081;-79
2022/08/24 00:22:28;;;;;;;3.20;1.98;;;;;;;25.05;51.15;101125.25;5007311;28;20075;-81
2022/08/24 00:24:55;;;;;;;4.72;2.10;;;;;;;24.88;51.48;101092.34;5007137;28;20046;-80
2022/08/24 00:27:22;;;;;;;3.92;2.47;;;;;;;24.86;51.30;101094.47;5007389;28;20057;-81
2022/08/24 00:29:48;;;;;;;2.58;2.30;;;;;;;24.96;51.51;101116.53;5007196;28;20374;-80
2022/08/24 00:32:15;;;;;;;3.83;2.22;;;;;;;24.88;51.39;101104.06;5007279;28;20600;-80
2022/08/24 00:34:43;;;;;;;6.95;1.98;;;;;;;24.72;51.06;101061.97;5006802;28;20049;-80
2022/08/24 00:37:25;;;;;;;4.40;2.57;;;;;;;25.05;51.48;101117.09;5006875;28;20057;-80
2022/08/24 00:39:51;;;;;;;4.25;2.22;;;;;;;24.86;51.57;101084.44;5006770;28;20077;-80
2022/08/24 00:42:18;;;;;;;2.45;1.77;;;;;;;24.99;51.40;101115.25;5006933;28;20057;-80
2022/08/24 00:44:45;;;;;;;1.95;1.75;;;;;;;24.94;51.51;101108.59;5007124;28;20050;-79
2022/08/24 00:47:41;;;;;;;5.43;2.00;;;;;;;24.75;51.76;101087.84;5000611;28;20062;-80
2022/08/24 00:50:19;;;;;;;3.10;2.03;;;;;;;24.81;51.62;101097.84;4987263;28;20142;-79
2022/08/24 00:52:52;;;;;;;7.68;2.38;;;;;;;24.85;51.75;101104.47;4987829;28;20371;-81
2022/08/24 00:55:32;;;;;;;2.72;2.20;;;;;;;24.86;51.80;101106.16;4987564;28;20054;-80
2022/08/24 00:58:05;;;;;;;4.30;2.20;;;;;;;24.83;51.76;101101.19;5003167;28;20108;-80
2022/08/24 01:00:38;;;;;;;3.80;2.25;;;;;;;24.76;51.48;101081.38;5021912;28;20104;-81
2022/08/24 01:03:08;;;;;;;3.45;1.95;;;;;;;24.89;51.69;101104.88;5006022;28;20449;-81
2022/08/24 01:05:37;;;;;;;5.15;2.67;;;;;;;24.79;51.94;101088.25;5006181;28;20046;-81
2022/08/24 01:08:07;;;;;;;4.82;2.42;;;;;;;24.88;51.64;101098.63;5007210;28;20463;-81
2022/08/24 01:10:38;;;;;;;6.18;2.97;;;;;;;24.76;52.19;101084.09;5006477;28;20057;-80
2022/08/24 01:13:09;;;;;;;5.28;2.83;;;;;;;24.84;52.05;101102.81;5006583;28;20050;-80
2022/08/24 01:15:39;;;;;;;3.58;2.80;;;;;;;24.20;52.34;101006.09;5004751;28;20120;-80
2022/08/24 01:21:06;;;;;;;4.35;2.85;;;;;;;24.76;52.45;101111.25;5006154;28;20053;-81
2022/08/24 01:23:41;;;;;;;8.45;3.20;;;;;;;24.40;52.56;101061.09;5004452;28;20081;-80
2022/08/24 01:26:12;;;;;;;3.05;2.60;;;;;;;24.53;52.59;101093.59;5004308;28;20060;-81
2022/08/24 01:28:44;;;;;;;2.95;2.05;;;;;;;24.44;52.35;101080.47;4986343;28;20050;-80
2022/08/24 01:31:11;;;;;;;4.18;2.25;;;;;;;24.68;52.13;101119.63;4972644;28;20055;-80
2022/08/24 01:33:38;;;;;;;5.18;2.47;;;;;;;24.47;52.08;101077.38;4967239;28;20286;-80
2022/08/24 01:36:25;;;;;;;2.72;2.05;;;;;;;24.73;52.46;101120.66;4972466;28;20050;-80
2022/08/24 01:38:57;;;;;;;3.55;2.30;;;;;;;24.72;52.52;101116.25;4983897;28;20061;-80
2022/08/24 01:41:23;;;;;;;3.55;2.10;;;;;;;24.70;52.51;101123.78;4981827;28;20050;-80
2022/08/24 01:43:56;;;;;;;6.53;2.45;;;;;;;24.15;52.46;101027.59;4982083;28;20795;-80
2022/08/24 01:46:24;;;;;;;12.35;2.72;;;;;;;24.42;52.92;101078.00;4984154;28;20438;-80
2022/08/24 01:48:51;;;;;;;2.70;2.30;;;;;;;24.63;53.09;101117.56;4982891;28;20133;-79
2022/08/24 01:51:19;;;;;;;5.70;2.30;;;;;;;24.48;53.17;101109.69;4967887;28;20137;-79
2022/08/24 01:53:46;;;;;;;3.05;2.25;;;;;;;24.51;53.04;101120.13;4982716;28;20101;-80
2022/08/24 01:56:13;;;;;;;5.05;2.33;;;;;;;24.25;53.51;101090.38;4966630;28;20310;-79
2022/08/24 01:58:44;;;;;;;4.47;2.35;;;;;;;24.42;53.74;101129.53;4975744;28;20096;-79
2022/08/24 02:01:11;;;;;;;;;;;;;;;24.36;53.81;101130.38;5011242;28;20054;-79
2022/08/24 02:03:38;;;;;;;3.53;2.50;;;;;;;24.19;53.74;101097.47;5004711;28;20397;-79
2022/08/24 02:06:05;;;;;;;3.45;2.22;;;;;;;24.13;53.57;101101.06;5005668;28;20135;-80
2022/08/24 02:08:34;;;;;;;2.78;2.17;;;;;;;24.31;53.64;101127.50;5022049;28;20389;-80
2022/08/24 02:11:05;;;;;;;3.38;2.20;;;;;;;24.27;53.80;101142.53;5005762;28;20065;-79
2022/08/24 02:13:32;;;;;;;5.40;2.17;;;;;;;23.94;53.67;101075.66;5005317;28;20054;-80
2022/08/24 02:15:59;;;;;;;3.58;2.47;;;;;;;24.26;53.37;101127.31;5005615;28;20177;-80
2022/08/24 02:18:26;;;;;;;1.70;1.60;;;;;;;24.30;52.57;101132.09;5005164;28;20072;-79
2022/08/24 02:20:53;;;;;;;4.85;1.83;;;;;;;24.26;52.82;101132.72;5005421;28;20257;-80
2022/08/24 02:23:20;;;;;;;2.25;2.03;;;;;;;23.86;52.87;101070.47;5004997;28;20073;-80
2022/08/24 02:25:47;;;;;;;2.33;2.13;;;;;;;24.22;52.96;101126.06;5005438;28;20502;-80
2022/08/24 02:28:13;;;;;;;4.80;1.73;;;;;;;24.16;53.12;101137.78;5021769;28;20124;-80
2022/08/24 02:30:40;;;;;;;3.80;1.83;;;;;;;24.02;53.31;101115.28;5005428;28;20477;-80
2022/08/24 02:33:07;;;;;;;2.33;2.13;;;;;;;24.15;53.11;101138.81;5006808;28;20045;-81
2022/08/24 02:35:33;;;;;;;3.83;1.88;;;;;;;24.12;53.30;101137.34;5005236;28;20064;-80
2022/08/24 02:38:00;;;;;;;3.15;1.95;;;;;;;23.96;53.28;101111.53;5005016;28;20382;-80
2022/08/24 02:40:28;;;;;;;4.28;2.33;;;;;;;23.96;53.39;101119.69;5005109;28;20053;-80
2022/08/24 02:42:54;;;;;;;3.92;1.90;;;;;;;23.89;53.68;101116.97;5005558;28;20061;-80
2022/08/24 02:45:21;;;;;;;5.85;2.05;;;;;;;23.99;53.66;101131.97;5005140;28;20510;-79
2022/08/24 02:47:48;;;;;;;2.75;2.13;;;;;;;23.92;53.75;101121.13;4994156;28;20314;-80
2022/08/24 02:50:16;;;;;;;3.85;2.22;;;;;;;23.91;53.12;101102.38;5002061;28;20085;-79
2022/08/24 02:52:43;;;;;;;2.47;1.90;;;;;;;23.85;53.33;101104.06;4985900;28;20104;-80
2022/08/24 02:55:15;;;;;;;2.53;2.08;;;;;;;23.56;53.36;101061.97;4991649;28;20050;-79
2022/08/24 02:57:46;;;;;;;5.20;1.90;;;;;;;23.56;53.60;101065.50;5004126;28;20302;-80
2022/08/24 03:00:15;;;;;;;7.05;1.90;;;;;;;23.82;53.74;101120.75;5005206;28;20088;-80
2022/08/24 03:02:42;;;;;;;3.42;1.85;;;;;;;23.81;53.95;101119.91;5010084;28;20061;-80
2022/08/24 03:05:09;;;;;;;2.22;1.65;;;;;;;23.85;54.50;101132.00;5008633;28;20492;-79
2022/08/24 03:07:36;;;;;;;3.25;1.80;;;;;;;23.58;54.22;101079.66;5008806;28;20255;-80
2022/08/24 03:10:05;;;;;;;3.47;2.50;;;;;;;23.85;54.36;101115.72;5008994;28;20100;-79
2022/08/24 03:12:33;;;;;;;3.95;1.92;;;;;;;23.94;54.39;101135.31;5025045;28;20726;-79
2022/08/24 03:15:01;;;;;;;3.72;2.10;;;;;;;23.32;54.36;101039.06;5008402;28;20038;-79
2022/08/24 03:17:30;;;;;;;1.88;1.77;;;;;;;23.79;54.39;101110.34;5007927;28;20529;-79
2022/08/24 03:19:57;;;;;;;4.15;2.08;;;;;;;23.60;54.70;101088.44;5009441;28;20103;-80
2022/08/24 03:22:23;;;;;;;2.20;1.77;;;;;;;23.78;54.61;101114.06;5008361;28;20107;-81
2022/08/24 03:24:50;;;;;;;4.80;2.17;;;;;;;23.78;54.77;101125.75;5008009;28;20135;-80
2022/08/24 03:27:17;;;;;;;2.35;2.13;;;;;;;23.32;54.57;101061.56;5008575;28;20434;-80
2022/08/24 03:29:44;;;;;;;2.33;2.13;;;;;;;23.76;53.71;101118.88;5007851;28;20077;-81
2022/08/24 03:32:11;;;;;;;2.28;1.60;;;;;;;23.50;53.90;101077.19;5008249;28;20053;-80
2022/08/24 03:34:38;;;;;;;2.47;2.03;;;;;;;23.62;53.01;101080.09;5007971;28;20118;-80
2022/08/24 03:37:05;;;;;;;3.53;1.95;;;;;;;23.95;52.87;101126.13;5007952;28;20329;-79
2022/08/24 03:39:31;;;;;;;3.03;1.63;;;;;;;23.57;52.26;101042.78;5007791;28;20041;-79
2022/08/24 03:41:58;;;;;;;2.47;1.95;;;;;;;23.95;52.26;101090.06;5007853;28;20053;-80
2022/08/24 03:44:25;;;;;;;2.55;1.73;;;;;;;24.15;52.16;101130.66;5009347;28;20066;-79
2022/08/24 03:46:52;;;;;;;4.18;1.80;;;;;;;24.06;53.02;101127.38;5001072;28;20414;-80
2022/08/24 03:49:20;;;;;;;2.45;1.90;;;;;;;24.02;53.15;101126.94;4985499;28;20117;-81
2022/08/24 03:51:46;;;;;;;3.88;1.98;;;;;;;23.71;53.45;101094.25;4984860;28;20102;-79
2022/08/24 03:54:13;;;;;;;2.75;2.03;;;;;;;23.44;53.49;101048.22;4968685;28;20047;-79
2022/08/24 03:56:40;;;;;;;5.45;1.85;;;;;;;23.55;53.41;101082.00;4984787;28;20150;-79
2022/08/24 03:59:09;;;;;;;2.00;1.77;;;;;;;23.70;53.71;101100.72;4995152;28;20054;-82
2022/08/24 04:01:37;;;;;;;3.90;2.15;;;;;;;23.82;53.91;101120.75;5009103;28;20054;-81
2022/08/24 04:04:04;;;;;;;2.55;1.88;;;;;;;23.64;54.11;101096.97;5010985;28;20057;-81
2022/08/24 04:06:30;;;;;;;2.92;1.40;;;;;;;23.73;53.96;101119.25;5008112;28;20045;-80
2022/08/24 04:08:57;;;;;;;4.32;1.92;;;;;;;23.65;53.92;101109.47;5023951;28;20552;-80
2022/08/24 04:11:26;;;;;;;2.55;1.88;;;;;;;23.75;54.12;101133.47;5007264;28;20293;-80
2022/08/24 04:13:58;;;;;;;4.28;1.52;;;;;;;23.64;54.09;101118.63;5007130;28;20053;-80
2022/08/24 04:16:25;;;;;;;;;;;;;;;23.61;54.88;101132.63;5007942;28;20046;-81
2022/08/24 04:18:52;;;;;;;2.38;1.83;;;;;;;23.60;54.88;101134.50;5008261;28;20016;-81
2022/08/24 04:21:25;;;;;;;3.92;2.00;;;;;;;23.13;55.07;101068.69;5007127;28;20057;-80
2022/08/24 04:23:52;;;;;;;2.47;1.90;;;;;;;22.91;55.14;101034.66;5007636;28;20045;-80
2022/08/24 04:26:21;;;;;;;4.15;2.22;;;;;;;22.93;55.12;101051.53;5007126;28;20107;-81
2022/08/24 04:29:10;;;;;;;5.82;2.22;;;;;;;23.43;54.93;101133.25;5007091;28;20219;-81
2022/08/24 04:31:38;;;;;;;2.75;2.20;;;;;;;22.90;55.19;101046.53;5006815;28;20100;-79
2022/08/24 04:34:06;;;;;;;2.80;2.05;;;;;;;23.21;55.51;101106.38;5006939;28;20049;-80
2022/08/24 04:36:34;;;;;;;4.00;1.92;;;;;;;23.33;55.10;101133.69;5007244;28;20103;-80
2022/08/24 04:39:01;;;;;;;2.53;1.92;;;;;;;23.43;55.20;101153.06;5007032;28;20461;-80
2022/08/24 04:41:28;;;;;;;2.45;1.65;;;;;;;23.46;54.59;101155.34;5008110;28;20201;-81
2022/08/24 04:43:58;;;;;;;2.45;2.03;;;;;;;23.22;54.72;101121.56;5008121;28;20061;-80
2022/08/24 04:46:26;;;;;;;5.75;2.13;;;;;;;23.51;54.58;101156.59;5006337;28;20049;-80
2022/08/24 04:48:53;;;;;;;3.08;2.10;;;;;;;23.52;54.71;101156.41;4985668;28;20121;-80
2022/08/24 04:51:21;;;;;;;3.65;1.95;;;;;;;23.55;54.85;101164.09;4985583;28;20050;-82
2022/08/24 04:53:49;;;;;;;2.65;1.60;;;;;;;23.34;54.88;101124.50;4982169;28;20098;-79
2022/08/24 04:56:22;;;;;;;8.65;2.25;;;;;;;23.56;54.97;101165.75;4985204;28;20042;-81
2022/08/24 04:58:51;;;;;;;3.72;2.00;;;;;;;23.54;55.17;101164.31;4984908;28;20042;-81
2022/08/24 05:01:21;;;;;;;2.72;2.25;;;;;;;23.55;55.10;101164.09;4985722;28;20058;-80
2022/08/24 05:03:49;;;;;;;4.63;2.42;;;;;;;23.45;55.17;101150.97;4951218;28;20050;-81
2022/08/24 05:06:18;;;;;;;4.97;2.17;;;;;;;23.57;55.28;101167.44;4951469;28;20058;-80
2022/08/24 05:08:46;;;;;;;4.25;2.55;;;;;;;23.67;55.83;101170.56;4968441;28;20105;-81
2022/08/24 05:11:14;;;;;;;8.10;2.88;;;;;;;23.50;55.74;101134.09;4951362;28;20109;-79
2022/08/24 05:13:41;;;;;;;6.85;2.95;;;;;;;23.80;55.72;101168.91;4951345;28;20082;-81
2022/08/24 05:16:10;;;;;;;5.70;3.10;;;;;;;23.66;55.03;101147.19;4951271;28;20415;-79
2022/08/24 05:18:37;;;;;;;10.38;3.35;;;;;;;23.63;55.02;101128.66;4951236;28;20050;-80
2022/08/24 05:21:09;;;;;;;7.75;3.70;;;;;;;23.79;55.33;101159.13;4950661;28;20101;-80
2022/08/24 05:23:37;;;;;;;5.97;2.45;;;;;;;23.74;55.74;101162.47;4950606;28;20515;-80
2022/08/24 05:26:13;;;;;;;3.75;3.22;;;;;;;23.81;56.06;101181.41;4951493;28;20098;-79
2022/08/24 05:28:41;;;;;;;5.20;2.90;;;;;;;23.82;55.53;101172.25;4951145;28;20117;-80
2022/08/24 05:31:15;;;;;;;8.32;3.58;;;;;;;23.85;55.95;101186.22;4951014;28;20487;-80
2022/08/24 05:33:43;;;;;;;8.50;2.95;;;;;;;23.85;56.11;101186.22;4950184;28;20053;-81
2022/08/24 05:36:18;;;;;;;7.43;3.25;;;;;;;23.75;55.74;101168.72;4950265;28;20042;-79
2022/08/24 05:38:47;;;;;;;5.00;3.00;;;;;;;23.87;56.18;101183.31;4950263;28;20055;-79
2022/08/24 05:41:15;;;;;;;6.25;2.63;;;;;;;24.00;55.64;101199.53;4950074;28;20090;-80
2022/08/24 05:43:43;;;;;;;3.33;2.70;;;;;;;24.03;55.47;101191.00;4950081;28;20086;-80
2022/08/24 05:46:09;;;;;;;11.43;3.25;;;;;;;24.12;55.49;101196.19;4950236;28;20395;-79
2022/08/24 05:48:37;;;;;;;5.30;2.92;;;;;;;23.68;55.40;101128.84;4967474;28;20042;-81
2022/08/24 05:51:05;;;;;;;8.30;2.65;;;;;;;24.13;54.47;101197.84;4967499;28;20070;-82
2022/08/24 05:53:32;;;;;;;6.03;2.22;;;;;;;24.13;54.35;101193.28;4950101;28;20534;-81
2022/08/24 05:56:07;;;;;;;4.85;2.10;;;;;;;24.12;54.33;101185.34;4949756;28;20123;-80
2022/08/24 05:58:36;;;;;;;7.13;2.45;;;;;;;23.66;54.15;101114.69;4949191;28;20384;-80
2022/08/24 06:01:11;;;;;;;4.07;2.55;;;;;;;24.16;54.20;101189.31;4967071;28;20070;-80
2022/08/24 06:03:39;;;;;;;6.18;2.42;;;;;;;24.09;53.88;101176.59;4984607;28;20289;-80
2022/08/24 06:06:07;;;;;;;3.42;1.80;;;;;;;24.21;53.48;101190.34;4992135;28;20073;-81
2022/08/24 06:08:36;;;;;;;5.00;2.35;;;;;;;24.29;53.45;101191.97;4992432;28;20054;-80
2022/08/24 06:11:07;;;;;;;12.23;2.75;;;;;;;24.29;53.24;101194.69;4988910;28;20054;-80
2022/08/24 06:13:34;;;;;;;2.40;2.15;;;;;;;24.27;53.59;101188.63;4985271;28;20046;-80
2022/08/24 06:16:03;;;;;;;4.32;2.00;;;;;;;24.42;52.94;101194.66;4985679;28;20050;-80
2022/08/24 06:18:47;;;;;;;5.57;2.15;;;;;;;24.41;52.68;101171.28;4999486;28;20057;-79
2022/08/24 06:21:17;;;;;;;5.32;2.13;;;;;;;24.45;52.63;101172.53;4985275;28;20121;-81
2022/08/24 06:23:45;;;;;;;5.32;2.13;;;;;;;24.67;53.33;101199.41;4984944;28;20062;-80
2022/08/24 06:28:59;;;;;;;3.10;1.92;;;;;;;24.74;52.65;101194.78;4986431;28;20100;-80
2022/08/24 06:31:26;;;;;;;4.60;1.83;;;;;;;24.75;52.65;101193.72;4984976;28;20066;-80
2022/08/24 06:33:54;;;;;;;2.50;2.10;;;;;;;24.58;52.45;101168.94;4986933;28;20058;-80
2022/08/24 06:36:21;;;;;;;5.13;2.30;;;;;;;24.81;52.13;101187.44;4989039;28;20078;-81
2022/08/24 06:38:48;;;;;;;4.13;2.10;;;;;;;24.93;51.91;101209.31;4988527;28;20050;-80
2022/08/24 06:41:15;;;;;;;1.90;1.67;;;;;;;24.98;52.35;101211.34;4988469;28;20162;-80
2022/08/24 06:43:42;;;;;;;1.75;1.50;;;;;;;25.07;51.71;101193.75;4989857;28;20426;-79
2022/08/24 06:46:09;;;;;;;2.03;1.63;;;;;;;25.11;51.47;101195.00;4988279;28;20086;-79
2022/08/24 06:48:36;;;;;;;2.20;1.60;;;;;;;25.29;50.63;101197.00;5000109;28;20052;-80
2022/08/24 06:51:09;;;;;;;3.97;1.75;;;;;;;25.38;50.63;101201.94;4989251;28;20050;-79
2022/08/24 06:53:36;;;;;;;1.67;1.55;;;;;;;25.43;50.34;101198.56;4989597;28;20062;-79
2022/08/24 06:56:03;;;;;;;3.05;1.95;;;;;;;25.13;50.90;101171.16;4989668;28;20058;-79
2022/08/24 06:58:31;;;;;;;3.33;1.73;;;;;;;25.44;50.42;101204.84;4991399;28;20050;-80
2022/08/24 07:01:08;;;;;;;1.50;1.40;;;;;;;25.52;49.50;101205.41;5008824;28;20054;-79
2022/08/24 07:03:35;;;;;;;3.83;1.65;;;;;;;25.20;49.57;101139.38;5008340;28;20061;-79
2022/08/24 07:06:03;;;;;;;10.20;2.20;;;;;;;25.54;49.59;101192.44;5008503;28;20077;-81
2022/08/24 07:08:30;;;;;;;2.50;1.88;;;;;;;25.59;49.52;101179.00;5010183;28;20241;-79
2022/08/24 07:10:57;;;;;;;8.77;2.30;;;;;;;25.51;49.78;101156.69;5008646;28;20605;-77
2022/08/24 07:13:24;;;;;;;2.95;1.90;;;;;;;25.90;49.67;101209.09;5008613;28;20054;-77
2022/08/24 07:15:52;;;;;;;4.45;2.05;;;;;;;25.83;49.56;101197.41;5008320;28;20572;-77
2022/08/24 07:18:19;;;;;;;6.60;1.90;;;;;;;25.82;49.13;101206.63;5008484;28;20053;-78
2022/08/24 07:20:49;;;;;;;2.97;1.90;;;;;;;25.72;49.35;101202.53;5008211;28;20085;-78
2022/08/24 07:23:16;;;;;;;6.95;1.73;;;;;;;25.77;49.83;101210.84;5008541;28;20390;-78
2022/08/24 07:25:45;;;;;;;7.68;2.15;;;;;;;25.82;49.71;101215.63;5008395;28;20557;-78
2022/08/24 07:28:16;;;;;;;2.50;1.60;;;;;;;25.92;48.60;101215.13;5000699;28;20544;-77
2022/08/24 07:30:52;;;;;;;3.42;1.90;;;;;;;25.91;48.37;101216.22;4988585;28;20526;-77
2022/08/24 07:33:19;;;;;;;4.30;1.88;;;;;;;25.69;48.94;101205.69;4989515;28;20545;-76
2022/08/24 07:35:46;;;;;;;5.78;1.90;;;;;;;25.76;49.69;101220.06;4988763;28;20169;-78
2022/08/24 07:38:12;;;;;;;1.85;1.35;;;;;;;25.82;49.05;101212.06;4988165;28;20506;-77
2022/08/24 07:40:39;;;;;;;1.58;1.48;;;;;;;25.76;49.53;101219.25;4988535;28;20055;-77
2022/08/24 07:43:26;;;;;;;3.58;1.80;;;;;;;25.68;49.60;101220.34;4988369;28;20081;-78
2022/08/24 07:45:52;;;;;;;3.55;1.63;;;;;;;25.77;49.80;101220.88;4987639;28;20062;-76
2022/08/24 07:48:19;;;;;;;2.35;1.60;;;;;;;25.83;50.47;101213.72;5004929;28;20077;-77
2022/08/24 07:50:46;;;;;;;3.63;2.10;;;;;;;25.97;49.49;101226.19;5008085;28;20494;-79
2022/08/24 07:53:13;;;;;;;2.20;1.83;;;;;;;25.94;49.81;101202.16;4997859;28;20486;-78
2022/08/24 07:55:52;;;;;;;2.30;1.47;;;;;;;26.18;49.88;101228.50;4979611;28;20148;-77
2022/08/24 07:58:18;;;;;;;3.78;1.77;;;;;;;26.31;49.51;101226.69;4994971;28;20364;-77
2022/08/24 08:00:47;;;;;;;4.15;2.03;;;;;;;26.26;49.41;101224.63;4981062;28;20215;-79
2022/08/24 08:03:13;;;;;;;8.88;1.92;;;;;;;26.33;49.51;101210.97;4963022;28;20240;-78
2022/08/24 08:05:40;;;;;;;4.70;1.85;;;;;;;26.31;49.43;101222.09;4950151;28;20058;-78
2022/08/24 08:08:07;;;;;;;3.08;1.80;;;;;;;26.08;50.31;101200.97;4950182;28;20407;-77
2022/08/24 08:10:35;;;;;;;4.35;2.10;;;;;;;25.99;50.02;101158.78;4953696;28;20050;-77
2022/08/24 08:13:05;;;;;;;2.58;1.73;;;;;;;26.44;50.01;101232.00;4960712;28;20055;-77
2022/08/24 08:15:32;;;;;;;2.47;1.70;;;;;;;26.58;49.90;101211.75;4949316;28;20067;-76
2022/08/24 08:17:59;;;;;;;4.90;2.08;;;;;;;26.50;49.59;101217.47;4950374;28;20078;-79
2022/08/24 08:20:25;;;;;;;2.30;1.65;;;;;;;26.61;49.26;101233.09;4964532;28;20507;-77
2022/08/24 08:25:38;;;;;;;5.75;2.33;;;;;;;26.33;50.24;101191.91;4969327;28;20066;-78
2022/08/24 08:28:05;;;;;;;3.65;1.90;;;;;;;26.50;49.12;101224.81;4952169;28;20074;-76
2022/08/24 08:30:51;;;;;;;3.17;1.80;;;;;;;26.49;50.40;101223.97;4968661;28;20046;-77
2022/08/24 08:33:18;;;;;;;2.38;1.63;;;;;;;26.31;50.59;101188.59;4951940;28;20503;-78
2022/08/24 08:35:46;;;;;;;2.33;1.60;;;;;;;26.78;49.00;101232.47;4968117;28;20514;-77
2022/08/24 08:38:12;;;;;;;2.97;2.05;;;;;;;26.79;49.13;101234.13;4967941;28;20133;-78
2022/08/24 08:41:07;;;;;;;2.05;1.75;;;;;;;26.86;49.66;101232.16;4969417;28;20082;-77
2022/08/24 08:43:43;;;;;;;5.20;2.17;;;;;;;26.84;49.33;101220.66;4952134;28;20049;-78
2022/08/24 08:46:47;;;;;;;4.20;2.00;;;;;;;27.08;49.50;101227.03;4967336;28;20113;-77
2022/08/24 08:49:22;;;;;;;2.78;2.28;;;;;;;27.12;49.41;101224.69;4966812;28;20153;-78
2022/08/24 08:52:10;;;;;;;3.58;2.30;;;;;;;26.63;48.86;101176.50;4958838;28;20121;-78
2022/08/24 08:55:12;;;;;;;4.20;2.15;;;;;;;26.94;49.01;101226.38;4935013;28;20162;-78
2022/08/24 08:57:50;;;;;;;;;;;;;;;26.83;49.24;101229.88;4951134;28;20055;-79
2022/08/24 09:00:39;;;;;;;2.42;2.22;;;;;;;26.80;48.94;101225.72;4949079;28;19973;-77
2022/08/24 09:03:16;;;;;;;3.55;2.15;;;;;;;26.89;49.23;101217.25;4967512;28;20058;-78
2022/08/24 09:05:58;;;;;;;3.20;1.85;;;;;;;27.07;48.72;101171.72;4967132;28;20459;-78
2022/08/24 09:08:56;;;;;;;4.40;2.08;;;;;;;27.13;48.55;101205.38;4967398;28;20054;-77
2022/08/24 09:12:01;;;;;;;8.65;2.45;;;;;;;27.40;48.70;101218.63;4932444;28;20519;-78
2022/08/24 09:14:55;;;;;;;3.38;2.25;;;;;;;27.92;47.46;101227.88;4968550;28;20043;-77
2022/08/24 09:17:40;;;;;;;2.80;1.88;;;;;;;27.80;47.45;101223.47;4966676;28;20586;-76
2022/08/24 09:20:22;;;;;;;3.40;2.08;;;;;;;27.23;47.96;101158.50;4967223;28;20077;-76
2022/08/24 09:23:21;;;;;;;6.20;2.65;;;;;;;27.48;47.46;101216.41;4967039;28;20058;-78
2022/08/24 09:26:02;;;;;;;5.72;1.80;;;;;;;27.47;47.77;101212.00;4962906;28;20507;-77
2022/08/24 09:29:01;;;;;;;2.00;1.90;;;;;;;27.42;47.44;101157.34;4966827;28;20051;-78
2022/08/24 09:32:04;;;;;;;3.03;1.92;;;;;;;27.46;46.39;101147.66;4958019;28;20398;-80
2022/08/24 09:34:55;;;;;;;6.03;1.88;;;;;;;27.86;46.49;101200.69;4942598;28;20054;-77
2022/08/24 09:37:50;;;;;;;2.38;2.17;;;;;;;28.43;46.80;101217.28;4966850;28;20053;-78
2022/08/24 09:40:41;;;;;;;1.67;1.58;;;;;;;28.28;46.82;101214.22;4950085;28;20059;-78
2022/08/24 09:43:27;;;;;;;4.00;1.83;;;;;;;28.80;44.55;101213.41;4968169;28;20150;-78
2022/08/24 09:46:10;;;;;;;3.63;1.88;;;;;;;28.47;45.46;101196.66;4951235;28;20102;-78
2022/08/24 09:49:11;;;;;;;2.05;1.85;;;;;;;27.95;44.05;101143.88;4965058;28;20054;-78
2022/08/24 09:51:48;;;;;;;1.83;1.73;;;;;;;28.62;45.25;101198.88;4966819;28;20089;-76
2022/08/24 09:54:33;;;;;;;1.98;1.88;;;;;;;28.37;45.52;101201.03;4966791;28;20560;-77
2022/08/24 09:57:47;;;;;;;2.00;1.90;;;;;;;28.26;45.37;101200.81;4966549;28;20051;-78
2022/08/24 10:00:33;;;;;;;2.53;2.10;;;;;;;28.39;44.52;101193.41;4967567;28;20287;-77
2022/08/24 10:03:21;;;;;;;1.98;1.88;;;;;;;28.10;44.27;101164.13;4964901;28;20125;-78
2022/08/24 10:06:01;;;;;;;;;;;;;;;28.44;45.50;101197.06;4965914;28;20490;-78
2022/08/24 10:09:08;;;;;;;2.63;1.88;;;;;;;28.60;45.11;101170.13;4949270;28;19945;-78
2022/08/24 10:11:48;;;;;;;2.67;1.90;;;;;;;28.54;44.24;101174.66;4940248;28;20054;-77
2022/08/24 10:14:32;;;;;;;2.58;2.33;;;;;;;28.58;43.70;101164.09;4967322;28;20063;-76
2022/08/24 10:17:10;;;;;;;4.20;2.03;;;;;;;28.82;45.56;101182.03;4959980;28;20490;-78
2022/08/24 10:20:06;;;;;;;2.45;2.10;;;;;;;28.82;44.41;101192.16;4947718;28;20106;-78
2022/08/24 10:22:51;;;;;;;2.17;1.83;;;;;;;29.05;44.14;101181.09;4944915;28;20053;-78
2022/08/24 10:25:58;;;;;;;2.88;2.00;;;;;;;28.83;44.39;101180.13;4945933;28;20082;-77
2022/08/24 10:29:10;;;;;;;2.40;2.20;;;;;;;28.21;44.60;101146.09;4955638;28;20047;-77
2022/08/24 10:31:47;;;;;;;2.92;2.53;;;;;;;28.30;45.32;101180.16;4937910;28;20364;-78
2022/08/24 10:34:40;;;;;;;2.10;1.90;;;;;;;28.41;45.90;101180.38;4946734;28;20063;-77
2022/08/24 10:37:35;;;;;;;3.50;1.90;;;;;;;28.52;45.95;101155.78;4947181;28;20070;-76
2022/08/24 10:40:33;;;;;;;11.88;2.03;;;;;;;28.63;45.30;101167.72;4946752;28;20062;-78
2022/08/24 10:43:32;;;;;;;1.90;1.75;;;;;;;28.11;46.29;101151.34;4946704;28;20587;-77
2022/08/24 10:46:14;;;;;;;2.00;1.70;;;;;;;28.13;45.65;101127.34;4962744;28;20098;-76
2022/08/24 10:49:16;;;;;;;3.40;2.15;;;;;;;28.11;46.29;101170.44;4965051;28;20561;-77
2022/08/24 10:52:07;;;;;;;6.88;2.45;;;;;;;28.05;46.41;101172.22;4967289;28;20102;-77
2022/08/24 10:54:35;;;;;;;;;;;;;;;27.95;46.82;101172.00;4966562;28;20151;-77
2022/08/24 10:57:06;;;;;;;3.15;2.10;;;;;;;27.90;46.69;101152.78;4967165;28;20361;-76
2022/08/24 11:00:03;;;;;;;4.00;2.60;;;;;;;27.97;46.54;101141.75;4959183;28;20043;-78
2022/08/24 11:02:36;;;;;;;3.05;2.10;;;;;;;28.24;46.35;101153.81;4965686;28;20140;-77
2022/08/24 11:05:14;;;;;;;6.30;2.40;;;;;;;28.48;45.18;101162.81;4987076;28;20054;-76
2022/08/24 11:08:07;;;;;;;3.38;2.17;;;;;;;28.77;45.02;101160.91;4985538;28;20073;-77
2022/08/24 11:10:36;;;;;;;2.72;2.38;;;;;;;28.76;43.71;101106.50;4985230;28;20046;-77
2022/08/24 11:13:26;;;;;;;3.17;2.38;;;;;;;28.82;44.51;101099.25;4986172;28;20078;-76
2022/08/24 11:15:58;;;;;;;3.58;2.20;;;;;;;29.31;44.68;101155.06;4985294;28;20054;-77
2022/08/24 11:18:44;;;;;;;2.40;2.20;;;;;;;29.02;44.99;101167.09;4985171;28;20050;-78
2022/08/24 11:21:39;;;;;;;2.83;2.20;;;;;;;28.68;45.74;101164.28;4987685;28;20094;-77
2022/08/24 11:24:12;;;;;;;3.63;2.10;;;;;;;28.72;45.25;101160.81;4988692;28;20827;-77
2022/08/24 11:26:54;;;;;;;7.97;2.03;;;;;;;28.66;45.18;101155.50;4989049;28;20302;-79
2022/08/24 11:29:30;;;;;;;7.07;2.35;;;;;;;28.25;45.37;101083.66;4988630;28;20054;-78
2022/08/24 11:31:57;;;;;;;2.22;2.03;;;;;;;28.53;45.75;101151.16;4990445;28;20050;-78
2022/08/24 11:34:36;;;;;;;5.30;1.92;;;;;;;28.34;45.70;101164.09;4988466;28;20391;-77
2022/08/24 11:37:09;;;;;;;2.45;2.10;;;;;;;28.29;45.36;101156.63;4988987;28;20061;-77
2022/08/24 11:39:36;;;;;;;4.25;2.22;;;;;;;28.26;46.04;101135.28;4988379;28;20104;-77
2022/08/24 11:42:21;;;;;;;3.42;2.38;;;;;;;28.65;44.76;101154.66;4988446;28;20054;-77
2022/08/24 11:45:01;;;;;;;4.25;2.25;;;;;;;28.90;45.06;101161.69;4988349;28;20049;-77
2022/08/24 11:47:28;;;;;;;3.00;2.20;;;;;;;28.86;45.17;101160.50;4997044;28;20054;-77
2022/08/24 11:50:16;;;;;;;3.05;1.80;;;;;;;28.97;44.79;101162.38;5009205;28;20124;-78
2022/08/24 11:52:52;;;;;;;2.40;1.92;;;;;;;28.67;44.32;101102.53;5007776;28;20049;-77
2022/08/24 11:55:21;;;;;;;2.85;2.05;;;;;;;28.63;44.15;101102.19;5007847;28;20057;-76
2022/08/24 11:58:01;;;;;;;3.90;2.28;;;;;;;28.82;43.66;101156.63;5007856;28;20049;-77
2022/08/24 12:00:46;;;;;;;3.55;1.98;;;;;;;28.90;44.47;101129.72;4989602;28;20085;-77
2022/08/24 12:03:26;;;;;;;2.20;1.75;;;;;;;28.58;44.31;101098.53;4972761;28;20067;-78